South Cave, United Kingdom
Current Conditions -  °F | °C
As of 8:50 AM on Thursday 18 Dec 2014 (Local Time) from EGXV Reporting Station
Drizzle Drizzle  
Wind Chill: 11°   Ceiling: 1300
Heat Index: 11°   Visibility: 6mi
Dew Point: 11°   Wind: 14mph
Humidity: 100%   Direction: 210°SSW
Pressure: 29.56"   Gusts: NA
Location:  53.77°N, 0.6°W
Report Text: EGXV 180850Z AUTO 21012KT 9999 -DZ SCT006/// BKN013/// 11/11 Q1001
Loading
Personal Weather Stations






























Interactive Weather Map New forecast layout! Learn more

10-Day Weather Forecast

Advertisements
Track Severe Weather on mobile